createdAt,value
2018-08-31T00:00:13.027Z,9.90
2018-08-31T00:02:48.541Z,11.07
2018-08-31T00:05:57.710Z,10.77
2018-08-31T00:10:41.039Z,10.63
2018-08-31T00:13:10.235Z,10.90
2018-08-31T00:15:38.811Z,10.13
2018-08-31T00:18:07.315Z,10.13
2018-08-31T00:20:35.919Z,10.93
2018-08-31T00:23:04.410Z,9.97
2018-08-31T00:26:14.200Z,10.37
2018-08-31T00:29:07.379Z,9.63
2018-08-31T00:33:54.887Z,9.80
2018-08-31T00:39:09.763Z,9.17
2018-08-31T00:43:24.548Z,9.40
2018-08-31T00:45:53.124Z,10.00
2018-08-31T00:48:21.647Z,10.47
2018-08-31T00:50:51.463Z,9.87
2018-08-31T00:53:19.911Z,10.53
2018-08-31T00:55:48.361Z,11.17
2018-08-31T00:58:16.837Z,9.90
2018-08-31T01:00:45.834Z,11.40
2018-08-31T01:03:14.295Z,11.50
2018-08-31T01:05:42.735Z,13.33
2018-08-31T01:08:11.199Z,13.47
2018-08-31T01:10:39.812Z,13.30
2018-08-31T01:13:08.279Z,12.83
2018-08-31T01:15:36.730Z,13.47
2018-08-31T01:18:05.228Z,13.30
2018-08-31T01:20:33.676Z,13.37
2018-08-31T01:23:02.104Z,13.63
2018-08-31T01:25:30.550Z,13.90
2018-08-31T01:27:59.257Z,13.57
2018-08-31T01:30:27.734Z,12.03
2018-08-31T01:32:56.235Z,13.50
2018-08-31T01:35:24.913Z,13.20
2018-08-31T01:37:53.435Z,14.17
2018-08-31T01:40:21.851Z,14.13
2018-08-31T01:42:50.285Z,14.43
2018-08-31T01:45:19.003Z,14.60
2018-08-31T01:47:47.460Z,14.33
2018-08-31T01:50:16.068Z,16.90
2018-08-31T01:52:44.638Z,16.87
2018-08-31T01:55:13.220Z,17.27
2018-08-31T01:57:41.710Z,17.40
2018-08-31T02:00:10.209Z,16.80
2018-08-31T02:02:38.771Z,17.17
2018-08-31T02:05:07.355Z,15.70
2018-08-31T02:07:35.896Z,16.93
2018-08-31T02:10:04.648Z,17.23
2018-08-31T02:12:33.335Z,16.97
2018-08-31T02:15:01.767Z,18.63
2018-08-31T02:17:30.199Z,17.33
2018-08-31T02:19:58.819Z,16.37
2018-08-31T02:22:27.246Z,14.43
2018-08-31T02:24:55.870Z,14.83
2018-08-31T02:27:24.308Z,14.30
2018-08-31T02:29:52.752Z,14.50
2018-08-31T02:32:21.376Z,13.70
2018-08-31T02:34:50.236Z,15.33
2018-08-31T02:37:18.682Z,16.10
2018-08-31T02:39:47.195Z,14.73
2018-08-31T02:42:15.711Z,14.10
2018-08-31T02:44:44.225Z,14.73
2018-08-31T02:47:12.674Z,15.37
2018-08-31T02:49:41.145Z,14.53
2018-08-31T02:52:09.702Z,13.63
2018-08-31T02:54:38.194Z,15.10
2018-08-31T02:57:06.755Z,16.53
2018-08-31T02:59:35.242Z,16.23
2018-08-31T03:02:03.685Z,17.60
2018-08-31T03:04:32.143Z,16.47
2018-08-31T03:07:00.597Z,15.67
2018-08-31T03:09:29.178Z,16.70
2018-08-31T03:11:57.643Z,15.90
2018-08-31T03:14:26.157Z,16.73
2018-08-31T03:16:54.604Z,15.10
2018-08-31T03:19:23.111Z,14.87
2018-08-31T03:21:51.629Z,15.67
2018-08-31T03:24:20.159Z,15.07
2018-08-31T03:26:48.874Z,15.03
2018-08-31T03:29:17.346Z,15.70
2018-08-31T03:31:45.796Z,15.10
2018-08-31T03:34:14.310Z,15.40
2018-08-31T03:36:43.097Z,15.30
2018-08-31T03:39:11.718Z,14.37
2018-08-31T03:41:40.187Z,13.57
2018-08-31T03:44:08.711Z,15.10
2018-08-31T03:46:37.186Z,15.00
2018-08-31T03:49:05.973Z,14.73
2018-08-31T03:51:34.468Z,15.00
2018-08-31T03:54:03.162Z,16.10
2018-08-31T03:56:31.658Z,15.43
2018-08-31T03:59:00.069Z,15.77
2018-08-31T04:01:28.552Z,15.13
2018-08-31T04:03:57.047Z,17.43
2018-08-31T04:06:25.507Z,16.27
2018-08-31T04:08:54.118Z,16.07
2018-08-31T04:11:22.703Z,16.67
2018-08-31T04:13:51.163Z,15.40
2018-08-31T04:16:19.907Z,16.27
2018-08-31T04:18:48.352Z,16.57
2018-08-31T04:21:16.839Z,14.93
2018-08-31T04:23:45.239Z,15.57
2018-08-31T04:26:13.734Z,15.87
2018-08-31T04:28:42.430Z,19.27
2018-08-31T04:31:10.970Z,16.20
2018-08-31T04:33:39.426Z,17.23
2018-08-31T04:36:08.118Z,18.60
2018-08-31T04:38:36.565Z,16.97
2018-08-31T04:41:05.062Z,16.50
2018-08-31T04:43:33.498Z,16.87
2018-08-31T04:46:01.948Z,17.93
2018-08-31T04:48:30.420Z,16.80
2018-08-31T04:50:59.133Z,16.80
2018-08-31T04:53:27.591Z,17.37
2018-08-31T04:55:56.155Z,17.13
2018-08-31T04:58:24.579Z,16.97
2018-08-31T05:00:53.058Z,18.37
2018-08-31T05:03:21.726Z,18.17
2018-08-31T05:05:50.272Z,17.07
2018-08-31T05:08:18.774Z,17.97
2018-08-31T05:10:47.318Z,16.90
2018-08-31T05:13:15.966Z,18.07
2018-08-31T05:15:44.476Z,17.57
2018-08-31T05:18:13.088Z,17.90
2018-08-31T05:20:41.812Z,19.30
2018-08-31T05:23:10.369Z,17.83
2018-08-31T05:25:39.055Z,19.07
2018-08-31T05:28:07.592Z,19.40
2018-08-31T05:30:36.204Z,18.60
2018-08-31T05:33:04.798Z,19.07
2018-08-31T05:35:33.230Z,18.43
2018-08-31T05:38:01.695Z,18.97
2018-08-31T05:40:30.117Z,18.33
2018-08-31T05:42:58.682Z,18.17
2018-08-31T05:45:27.372Z,19.47
2018-08-31T05:47:56.282Z,18.73
2018-08-31T05:50:24.694Z,19.00
2018-08-31T05:52:53.356Z,18.93
2018-08-31T05:55:21.804Z,19.80
2018-08-31T05:57:50.255Z,20.87
2018-08-31T06:00:19.527Z,20.27
2018-08-31T06:02:47.975Z,20.07
2018-08-31T06:05:16.456Z,20.67
2018-08-31T06:07:45.025Z,21.00
2018-08-31T06:10:13.838Z,22.70
2018-08-31T06:12:42.329Z,21.63
2018-08-31T06:15:11.101Z,21.40
2018-08-31T06:17:39.663Z,21.03
2018-08-31T06:20:08.518Z,22.40
2018-08-31T06:22:37.054Z,21.47
2018-08-31T06:25:05.875Z,22.30
2018-08-31T06:27:34.376Z,22.17
2018-08-31T06:30:02.840Z,21.33
2018-08-31T06:32:31.394Z,22.30
2018-08-31T06:35:00.043Z,22.43
2018-08-31T06:37:28.493Z,24.03
2018-08-31T06:39:57.234Z,21.17
2018-08-31T06:42:25.863Z,21.87
2018-08-31T06:44:54.299Z,21.50
2018-08-31T06:47:22.812Z,20.50
2018-08-31T06:49:51.372Z,22.70
2018-08-31T06:52:19.862Z,21.97
2018-08-31T06:54:48.485Z,20.93
2018-08-31T06:57:16.924Z,21.03
2018-08-31T06:59:45.419Z,20.83
2018-08-31T07:02:13.892Z,23.40
2018-08-31T07:04:42.585Z,19.53
2018-08-31T07:07:11.128Z,18.80
2018-08-31T07:09:39.574Z,18.23
2018-08-31T07:12:08.058Z,19.97
2018-08-31T07:14:36.661Z,18.40
2018-08-31T07:17:05.352Z,19.97
2018-08-31T07:19:34.037Z,19.00
2018-08-31T07:22:02.527Z,19.07
2018-08-31T07:24:30.960Z,18.27
2018-08-31T07:26:59.606Z,18.80
2018-08-31T07:29:28.215Z,20.03
2018-08-31T07:31:57.542Z,19.27
2018-08-31T07:34:26.001Z,19.43
2018-08-31T07:36:54.518Z,19.67
2018-08-31T07:39:23.260Z,18.93
2018-08-31T07:41:52.042Z,21.27
2018-08-31T07:44:20.508Z,19.53
2018-08-31T07:46:49.057Z,19.47
2018-08-31T07:49:17.709Z,19.43
2018-08-31T07:51:46.499Z,20.27
2018-08-31T07:54:15.243Z,19.80
2018-08-31T07:56:43.897Z,20.27
2018-08-31T07:59:12.789Z,21.17
2018-08-31T08:01:41.359Z,20.17
2018-08-31T08:04:09.895Z,20.77
2018-08-31T08:06:38.296Z,19.23
2018-08-31T08:09:08.079Z,20.00
2018-08-31T08:11:36.714Z,21.50
2018-08-31T08:14:05.159Z,19.03
2018-08-31T08:16:33.584Z,20.47
2018-08-31T08:19:02.084Z,21.83
2018-08-31T08:21:30.832Z,20.93
2018-08-31T08:23:59.260Z,21.13
2018-08-31T08:26:27.775Z,21.60
2018-08-31T08:28:56.293Z,20.37
2018-08-31T08:31:24.761Z,20.80
2018-08-31T08:33:53.235Z,19.67
2018-08-31T08:36:21.719Z,20.80
2018-08-31T08:38:50.360Z,20.13
2018-08-31T08:41:18.908Z,21.10
2018-08-31T08:43:47.368Z,20.60
2018-08-31T08:46:16.274Z,21.23
2018-08-31T08:48:44.880Z,20.20
2018-08-31T08:51:13.466Z,20.40
2018-08-31T08:53:41.942Z,20.47
2018-08-31T08:56:10.400Z,19.33
2018-08-31T08:58:39.162Z,20.30
2018-08-31T09:01:07.652Z,21.53
2018-08-31T09:03:36.161Z,21.77
2018-08-31T09:06:04.711Z,22.33
2018-08-31T09:08:33.202Z,21.33
2018-08-31T09:11:01.795Z,20.67
2018-08-31T09:13:30.291Z,20.97
2018-08-31T09:15:59.838Z,20.77
2018-08-31T09:18:29.368Z,20.00
2018-08-31T09:20:58.287Z,18.90
2018-08-31T09:23:27.254Z,19.53
2018-08-31T09:25:57.770Z,18.40
2018-08-31T09:28:26.285Z,15.70
2018-08-31T09:30:55.464Z,17.93
2018-08-31T09:33:23.960Z,15.40
2018-08-31T09:35:52.417Z,17.07
2018-08-31T09:38:21.064Z,18.43
2018-08-31T09:40:49.751Z,17.97
2018-08-31T09:43:18.516Z,17.13
2018-08-31T09:45:51.309Z,19.23
2018-08-31T09:48:19.918Z,19.10
2018-08-31T09:50:48.413Z,18.57
2018-08-31T09:53:16.835Z,20.60
2018-08-31T09:55:45.410Z,18.83
2018-08-31T09:58:13.859Z,19.03
2018-08-31T10:00:47.799Z,19.43
2018-08-31T10:03:21.576Z,19.27
2018-08-31T10:05:50.458Z,20.97
2018-08-31T10:08:19.044Z,21.57
2018-08-31T10:10:47.650Z,22.53
2018-08-31T10:13:16.729Z,21.53
2018-08-31T10:15:45.549Z,21.53
2018-08-31T10:18:14.502Z,21.43
2018-08-31T10:20:43.073Z,21.40
2018-08-31T10:23:11.805Z,22.00
2018-08-31T10:25:41.358Z,21.97
2018-08-31T10:28:09.915Z,24.40
2018-08-31T10:30:38.579Z,26.07
2018-08-31T10:33:07.271Z,20.97
2018-08-31T10:35:36.037Z,22.77
2018-08-31T10:38:04.553Z,21.40
2018-08-31T10:40:32.998Z,24.23
2018-08-31T10:43:01.551Z,22.83
2018-08-31T10:45:30.058Z,21.50
2018-08-31T10:47:58.529Z,24.93
2018-08-31T10:50:26.994Z,21.77
2018-08-31T10:52:55.587Z,22.10
2018-08-31T10:55:24.005Z,25.63
2018-08-31T10:57:52.493Z,27.37
2018-08-31T11:00:21.085Z,22.90
2018-08-31T11:02:49.588Z,21.43
2018-08-31T11:05:18.030Z,21.90
2018-08-31T11:07:46.496Z,36.27
2018-08-31T11:10:15.030Z,23.13
2018-08-31T11:12:43.714Z,23.00
2018-08-31T11:15:12.419Z,21.40
2018-08-31T11:17:41.110Z,27.40
2018-08-31T11:20:09.612Z,25.57
2018-08-31T11:22:38.177Z,24.37
2018-08-31T11:25:06.615Z,23.13
2018-08-31T11:27:35.345Z,25.13
2018-08-31T11:30:04.015Z,19.97
2018-08-31T11:32:32.635Z,20.57
2018-08-31T11:35:01.111Z,22.60
2018-08-31T11:37:29.723Z,25.87
2018-08-31T11:39:58.147Z,21.10
2018-08-31T11:42:26.727Z,25.70
2018-08-31T11:44:55.506Z,29.20
2018-08-31T11:47:24.338Z,27.93
2018-08-31T11:49:52.863Z,19.67
2018-08-31T11:52:21.444Z,17.00
2018-08-31T11:54:49.889Z,17.07
2018-08-31T11:57:19.112Z,19.27
2018-08-31T11:59:47.649Z,19.67
2018-08-31T12:02:16.078Z,18.80
2018-08-31T12:04:44.560Z,17.30
2018-08-31T12:07:13.095Z,15.93
2018-08-31T12:09:41.900Z,16.87
2018-08-31T12:12:10.435Z,16.67
2018-08-31T12:14:38.951Z,17.87
2018-08-31T12:17:07.397Z,16.50
2018-08-31T12:19:35.823Z,15.87
2018-08-31T12:22:04.362Z,22.43
2018-08-31T12:24:32.803Z,20.47
2018-08-31T12:27:01.354Z,23.40
2018-08-31T12:29:29.862Z,18.67
2018-08-31T12:31:58.503Z,18.47
2018-08-31T12:34:27.046Z,15.80
2018-08-31T12:36:55.489Z,18.90
2018-08-31T12:39:23.939Z,18.53
2018-08-31T12:41:52.417Z,18.30
2018-08-31T12:44:20.933Z,18.07
2018-08-31T12:46:49.563Z,17.73
2018-08-31T12:49:18.062Z,18.87
2018-08-31T12:51:46.594Z,19.07
2018-08-31T12:54:15.042Z,19.53
2018-08-31T12:56:43.630Z,19.63
2018-08-31T12:59:12.083Z,20.33
2018-08-31T13:01:40.614Z,19.03
2018-08-31T13:04:09.131Z,14.57
2018-08-31T13:06:37.613Z,13.27
2018-08-31T13:09:07.084Z,12.97
2018-08-31T13:11:35.692Z,11.67
2018-08-31T13:14:04.163Z,14.70
2018-08-31T13:16:32.588Z,26.07
2018-08-31T13:19:06.998Z,23.30
2018-08-31T13:21:35.466Z,15.80
2018-08-31T13:24:03.950Z,15.37
2018-08-31T13:26:32.519Z,15.53
2018-08-31T13:29:00.978Z,16.17
2018-08-31T13:31:29.507Z,17.57
2018-08-31T13:33:58.122Z,19.13
2018-08-31T13:36:26.799Z,15.63
2018-08-31T13:38:55.259Z,17.63
2018-08-31T13:41:23.843Z,18.03
2018-08-31T13:43:52.497Z,17.23
2018-08-31T13:46:21.233Z,18.03
2018-08-31T13:48:49.992Z,16.10
2018-08-31T13:51:18.446Z,17.27
2018-08-31T13:53:47.353Z,17.60
2018-08-31T13:56:15.849Z,16.27
2018-08-31T13:58:44.302Z,17.37
2018-08-31T14:01:12.773Z,18.37
2018-08-31T14:03:41.955Z,15.63
2018-08-31T14:06:10.601Z,13.37
2018-08-31T14:08:39.146Z,15.27
2018-08-31T14:11:07.629Z,14.80
2018-08-31T14:13:36.206Z,13.03
2018-08-31T14:16:04.739Z,13.77
2018-08-31T14:18:33.731Z,13.30
2018-08-31T14:21:02.260Z,13.80
2018-08-31T14:23:30.913Z,14.23
2018-08-31T14:25:59.709Z,13.97
2018-08-31T14:28:28.292Z,15.03
2018-08-31T14:30:56.812Z,15.03
2018-08-31T14:33:25.535Z,26.87
2018-08-31T14:35:54.021Z,21.97
2018-08-31T14:38:22.577Z,17.10
2018-08-31T14:40:51.187Z,16.20
2018-08-31T14:43:19.640Z,16.37
2018-08-31T14:45:48.152Z,15.33
2018-08-31T14:48:16.591Z,13.20
2018-08-31T14:50:45.037Z,14.03
2018-08-31T14:53:13.524Z,13.07
2018-08-31T14:55:42.009Z,14.90
2018-08-31T14:58:10.610Z,14.80
2018-08-31T15:00:39.046Z,14.50
2018-08-31T15:03:07.528Z,14.03
2018-08-31T15:05:36.047Z,12.97
2018-08-31T15:08:04.672Z,13.03
2018-08-31T15:10:33.162Z,12.37
2018-08-31T15:13:01.787Z,19.63
2018-08-31T15:15:30.415Z,17.67
2018-08-31T15:17:58.860Z,12.77
2018-08-31T15:20:27.401Z,14.07
2018-08-31T15:22:55.982Z,13.30
2018-08-31T15:25:24.487Z,13.57
2018-08-31T15:27:53.190Z,14.07
2018-08-31T15:30:21.649Z,12.63
2018-08-31T15:32:50.084Z,13.77
2018-08-31T15:35:18.684Z,14.20
2018-08-31T15:37:47.168Z,12.07
2018-08-31T15:40:15.620Z,13.03
2018-08-31T15:42:44.223Z,14.67
2018-08-31T15:45:13.039Z,13.27
2018-08-31T15:47:41.536Z,14.37
2018-08-31T15:50:10.103Z,15.43
2018-08-31T15:52:38.690Z,13.20
2018-08-31T15:55:07.219Z,25.97
2018-08-31T15:57:35.806Z,18.87
2018-08-31T16:00:04.850Z,17.40
2018-08-31T16:02:33.335Z,14.77
2018-08-31T16:05:02.154Z,17.73
2018-08-31T16:07:30.753Z,16.43
2018-08-31T16:09:59.175Z,16.13
2018-08-31T16:12:27.651Z,13.97
2018-08-31T16:14:56.100Z,15.00
2018-08-31T16:17:24.641Z,14.40
2018-08-31T16:19:53.163Z,14.00
2018-08-31T16:22:21.603Z,15.50
2018-08-31T16:24:50.082Z,14.30
2018-08-31T16:27:19.134Z,14.73
2018-08-31T16:29:47.674Z,15.23
2018-08-31T16:32:16.179Z,14.13
2018-08-31T16:34:44.700Z,14.13
2018-08-31T16:37:13.148Z,13.57
2018-08-31T16:39:41.589Z,14.57
2018-08-31T16:42:10.377Z,13.93
2018-08-31T16:44:38.856Z,15.13
2018-08-31T16:47:07.391Z,15.13
2018-08-31T16:49:35.819Z,14.90
2018-08-31T16:52:04.381Z,16.33
2018-08-31T16:54:32.832Z,15.97
2018-08-31T16:57:01.299Z,18.10
2018-08-31T16:59:29.767Z,16.47
2018-08-31T17:01:58.275Z,15.67
2018-08-31T17:04:26.742Z,18.17
2018-08-31T17:06:55.187Z,17.67
2018-08-31T17:09:23.616Z,16.90
2018-08-31T17:11:52.178Z,18.03
2018-08-31T17:14:20.627Z,18.30
2018-08-31T17:16:49.136Z,16.47
2018-08-31T17:19:17.868Z,18.93
2018-08-31T17:21:46.413Z,17.53
2018-08-31T17:24:14.919Z,18.30
2018-08-31T17:26:48.602Z,17.83
2018-08-31T17:29:22.451Z,17.13
2018-08-31T17:31:56.131Z,17.00
2018-08-31T17:34:29.784Z,17.03
2018-08-31T17:37:03.486Z,17.27
2018-08-31T17:39:32.046Z,17.03
2018-08-31T17:42:00.522Z,19.23
2018-08-31T17:44:29.000Z,19.50
2018-08-31T17:46:57.428Z,17.57
2018-08-31T17:49:26.511Z,19.63
2018-08-31T17:51:55.111Z,19.30
2018-08-31T17:54:23.831Z,18.53
2018-08-31T17:56:52.418Z,20.07
2018-08-31T17:59:21.042Z,19.53
2018-08-31T18:01:49.598Z,18.03
2018-08-31T18:04:18.209Z,18.40
2018-08-31T18:06:46.769Z,20.20
2018-08-31T18:09:15.284Z,18.97
2018-08-31T18:11:43.938Z,18.50
2018-08-31T18:14:12.681Z,18.57
2018-08-31T18:16:41.272Z,21.10
2018-08-31T18:19:09.921Z,18.37
2018-08-31T18:21:38.476Z,20.67
2018-08-31T18:24:07.373Z,21.57
2018-08-31T18:26:35.807Z,24.70
2018-08-31T18:29:04.264Z,19.10
2018-08-31T18:31:32.774Z,19.77
2018-08-31T18:34:01.493Z,20.50
2018-08-31T18:36:30.266Z,20.47
2018-08-31T18:38:58.898Z,20.23
2018-08-31T18:41:27.441Z,18.30
2018-08-31T18:43:56.217Z,18.80
2018-08-31T18:46:24.828Z,20.60
2018-08-31T18:48:53.368Z,21.07
2018-08-31T18:51:21.953Z,24.33
2018-08-31T18:53:50.518Z,19.83
2018-08-31T18:56:18.964Z,18.53
2018-08-31T18:58:49.153Z,19.10
2018-08-31T19:01:17.608Z,19.77
2018-08-31T19:03:46.218Z,20.13
2018-08-31T19:06:14.680Z,20.00
2018-08-31T19:08:43.154Z,20.87
2018-08-31T19:11:11.621Z,21.60
2018-08-31T19:13:40.211Z,22.07
2018-08-31T19:16:08.695Z,28.67
2018-08-31T19:18:37.205Z,23.23
2018-08-31T19:21:05.903Z,23.57
2018-08-31T19:23:34.633Z,23.73
2018-08-31T19:26:03.089Z,24.60
2018-08-31T19:28:31.604Z,24.73
2018-08-31T19:31:00.050Z,25.50
2018-08-31T19:33:28.630Z,25.83
2018-08-31T19:35:57.134Z,24.03
2018-08-31T19:38:25.652Z,24.37
2018-08-31T19:40:54.182Z,24.80
2018-08-31T19:43:22.870Z,22.33
2018-08-31T19:45:51.314Z,23.67
2018-08-31T19:48:19.999Z,23.20
2018-08-31T19:50:48.535Z,23.87
2018-08-31T19:53:17.029Z,23.37
2018-08-31T19:55:45.554Z,22.63
2018-08-31T19:58:14.064Z,22.07
2018-08-31T20:00:42.587Z,22.60
2018-08-31T20:03:11.106Z,20.63
2018-08-31T20:05:39.826Z,22.23
2018-08-31T20:08:08.294Z,21.97
2018-08-31T20:10:36.915Z,23.00
2018-08-31T20:13:05.546Z,21.13
2018-08-31T20:15:34.050Z,21.47
2018-08-31T20:18:02.620Z,19.80
2018-08-31T20:20:31.129Z,21.13
2018-08-31T20:22:59.661Z,21.30
2018-08-31T20:25:28.159Z,22.37
2018-08-31T20:27:56.811Z,20.53
2018-08-31T20:30:25.346Z,22.27
2018-08-31T20:32:54.006Z,23.77
2018-08-31T20:35:22.488Z,21.53
2018-08-31T20:37:50.971Z,21.03
2018-08-31T20:40:19.455Z,21.53
2018-08-31T20:42:48.103Z,22.33
2018-08-31T20:45:16.681Z,22.00
2018-08-31T20:47:45.141Z,22.37
2018-08-31T20:50:13.647Z,23.20
2018-08-31T20:52:42.192Z,22.67
2018-08-31T20:55:10.754Z,22.00
2018-08-31T20:57:39.373Z,21.93
2018-08-31T21:00:07.898Z,21.80
2018-08-31T21:02:36.345Z,25.97
2018-08-31T21:05:04.822Z,27.70
2018-08-31T21:07:33.298Z,24.97
2018-08-31T21:10:01.809Z,25.10
2018-08-31T21:12:30.282Z,25.10
2018-08-31T21:14:58.909Z,25.77
2018-08-31T21:17:27.366Z,25.73
2018-08-31T21:19:56.067Z,24.43
2018-08-31T21:22:24.479Z,23.87
2018-08-31T21:24:53.112Z,24.30
2018-08-31T21:27:21.933Z,23.50
2018-08-31T21:29:50.430Z,26.20
2018-08-31T21:32:19.003Z,25.73
2018-08-31T21:34:47.610Z,24.77
2018-08-31T21:37:16.032Z,24.47
2018-08-31T21:39:51.142Z,25.00
2018-08-31T21:42:19.738Z,26.27
2018-08-31T21:44:48.444Z,26.40
2018-08-31T21:47:16.998Z,24.93
2018-08-31T21:49:45.452Z,24.80
2018-08-31T21:52:14.009Z,25.70
2018-08-31T21:54:42.493Z,23.93
2018-08-31T21:57:11.021Z,24.80
2018-08-31T21:59:39.601Z,25.43
2018-08-31T22:02:08.580Z,25.07
2018-08-31T22:04:37.278Z,25.97
2018-08-31T22:07:05.783Z,25.27
2018-08-31T22:09:34.284Z,24.07
2018-08-31T22:12:02.922Z,23.97
2018-08-31T22:14:31.342Z,24.23
2018-08-31T22:16:59.846Z,26.27
2018-08-31T22:19:28.484Z,24.47
2018-08-31T22:21:56.941Z,26.00
2018-08-31T22:24:25.554Z,21.90
2018-08-31T22:26:54.154Z,22.03
2018-08-31T22:29:22.665Z,21.87
2018-08-31T22:31:51.307Z,23.37
2018-08-31T22:34:20.225Z,21.63
2018-08-31T22:36:48.819Z,20.83
2018-08-31T22:39:17.406Z,21.40
2018-08-31T22:41:45.874Z,20.70
2018-08-31T22:44:14.338Z,21.10
2018-08-31T22:46:42.844Z,22.07
2018-08-31T22:49:11.338Z,19.77
2018-08-31T22:51:40.035Z,22.10
2018-08-31T22:54:08.530Z,21.47
2018-08-31T22:56:37.604Z,19.53
2018-08-31T22:59:06.236Z,20.90
2018-08-31T23:01:34.698Z,22.53
2018-08-31T23:04:03.400Z,19.70
2018-08-31T23:06:32.199Z,19.90
2018-08-31T23:09:00.847Z,20.20
2018-08-31T23:11:29.435Z,20.53
2018-08-31T23:13:58.129Z,20.53
2018-08-31T23:16:26.907Z,22.97
2018-08-31T23:18:55.363Z,20.50
2018-08-31T23:21:24.317Z,22.27
2018-08-31T23:23:52.838Z,21.90
2018-08-31T23:26:21.317Z,20.67
2018-08-31T23:28:49.822Z,22.27
2018-08-31T23:31:18.674Z,21.37
2018-08-31T23:33:47.138Z,22.77
2018-08-31T23:36:15.762Z,22.53
2018-08-31T23:38:44.338Z,22.83
2018-08-31T23:41:13.037Z,21.37
2018-08-31T23:43:41.500Z,23.33
2018-08-31T23:46:10.603Z,22.90
2018-08-31T23:48:39.061Z,21.53
2018-08-31T23:51:07.553Z,21.67
2018-08-31T23:53:42.878Z,22.73
2018-08-31T23:56:11.404Z,24.03
2018-08-31T23:58:39.852Z,27.40
